Afton, Wisconsin
Current Conditions -  °F | °C
As of 11:45 AM on Thursday 29 Jan 2015 (Local Time) from KJVL Reporting Station
Overcast Overcast  
Wind Chill: 26°   Ceiling: 1900
Heat Index: 36°   Visibility: 10mi
Dew Point: 27°   Wind: 15mph
Humidity: 70%   Direction: 340°NNW
Pressure: 29.97"   Gusts: 26mph
Location:  42.6°N, 89.07°W
Report Text: KJVL 291745Z 34013G23KT 10SM OVC019 02/M03 A2997
Loading
Personal Weather Stations






























Interactive Weather Map New forecast layout! Learn more

10-Day Weather Forecast

Advertisements
Track Severe Weather on mobile